Time;durP1;ratioP1;P1;durP2;ratioP2;P2;SDS_P1;SDS_P2;PMS_P1;PMS_P2;Temp;Humidity;BMP_temperature;BMP_pressure;BME280_temperature;BME280_humidity;BME280_pressure;Samples;Min_cycle;Max_cycle;Signal;HPM_P1;HPM_P2
2023/03/15 00:00:24;;;;;;;3.72;2.78;;;;;;;;;;5043690;28;20379;-76
2023/03/15 00:02:50;;;;;;;4.68;3.03;;;;;;;;;;5045353;28;20033;-75
2023/03/15 00:05:16;;;;;;;3.83;2.85;;;;;;;;;;5047176;28;20035;-74
2023/03/15 00:07:42;;;;;;;5.05;3.53;;;;;;;;;;5040938;28;20024;-76
2023/03/15 00:10:11;;;;;;;5.82;3.50;;;;;;;;;;5035018;28;20021;-76
2023/03/15 00:12:37;;;;;;;3.72;2.75;;;;;;;;;;5034538;28;20073;-75
2023/03/15 00:15:10;;;;;;;2.85;2.55;;;;;;;;;;5038966;28;20503;-75
2023/03/15 00:17:36;;;;;;;5.60;2.60;;;;;;;;;;5045157;28;20075;-75
2023/03/15 00:20:05;;;;;;;4.60;3.10;;;;;;;;;;5044963;28;20473;-75
2023/03/15 00:22:31;;;;;;;3.75;2.97;;;;;;;;;;5033124;28;20503;-75
2023/03/15 00:24:57;;;;;;;6.47;2.95;;;;;;;;;;5044098;28;20090;-75
2023/03/15 00:27:23;;;;;;;2.90;2.58;;;;;;;;;;5046263;28;20110;-75
2023/03/15 00:29:52;;;;;;;4.45;2.88;;;;;;;;;;5039040;28;20021;-76
2023/03/15 00:32:18;;;;;;;4.28;2.45;;;;;;;;;;5038325;28;20033;-75
2023/03/15 00:34:47;;;;;;;5.72;3.05;;;;;;;;;;5039526;28;20519;-76
2023/03/15 00:37:15;;;;;;;4.20;2.92;;;;;;;;;;5042853;28;20017;-75
2023/03/15 00:39:44;;;;;;;5.07;2.35;;;;;;;;;;5041937;28;20032;-75
2023/03/15 00:42:10;;;;;;;4.68;2.40;;;;;;;;;;5046054;28;20055;-75
2023/03/15 00:44:36;;;;;;;3.13;2.38;;;;;;;;;;5030047;28;20033;-76
2023/03/15 00:47:04;;;;;;;4.07;2.83;;;;;;;;;;5038466;28;20029;-76
2023/03/15 00:49:32;;;;;;;2.75;2.00;;;;;;;;;;5045971;28;20067;-76
2023/03/15 00:51:58;;;;;;;5.78;2.90;;;;;;;;;;5045497;28;20029;-75
2023/03/15 00:54:24;;;;;;;2.70;2.10;;;;;;;;;;5036769;28;20048;-76
2023/03/15 00:56:49;;;;;;;3.05;2.15;;;;;;;;;;5041814;28;20112;-75
2023/03/15 00:59:15;;;;;;;4.95;3.00;;;;;;;;;;5046927;28;20041;-75
2023/03/15 01:01:43;;;;;;;3.22;2.53;;;;;;;;;;5043922;28;20029;-75
2023/03/15 01:04:10;;;;;;;4.78;3.08;;;;;;;;;;5039306;28;20029;-75
2023/03/15 01:06:37;;;;;;;3.15;2.30;;;;;;;;;;5042628;28;20029;-75
2023/03/15 01:09:04;;;;;;;2.55;2.13;;;;;;;;;;5037343;28;20532;-75
2023/03/15 01:11:30;;;;;;;3.63;2.33;;;;;;;;;;5031598;28;20161;-75
2023/03/15 01:13:57;;;;;;;3.35;2.17;;;;;;;;;;5036642;28;20040;-75
2023/03/15 01:16:23;;;;;;;3.35;1.95;;;;;;;;;;5027980;28;20039;-75
2023/03/15 01:18:52;;;;;;;3.40;2.42;;;;;;;;;;5037061;28;20067;-75
2023/03/15 01:21:18;;;;;;;2.25;1.92;;;;;;;;;;5036956;28;20027;-75
2023/03/15 01:23:44;;;;;;;7.13;2.67;;;;;;;;;;5045158;28;20083;-75
2023/03/15 01:26:12;;;;;;;2.08;1.90;;;;;;;;;;5037616;28;20033;-75
2023/03/15 01:28:38;;;;;;;2.50;2.22;;;;;;;;;;5036011;28;20499;-75
2023/03/15 01:31:04;;;;;;;3.45;2.40;;;;;;;;;;5039757;28;20031;-75
2023/03/15 01:33:30;;;;;;;3.28;2.30;;;;;;;;;;5037423;28;20029;-75
2023/03/15 01:36:03;;;;;;;2.53;1.90;;;;;;;;;;5046322;28;20292;-75
2023/03/15 01:38:30;;;;;;;2.72;2.00;;;;;;;;;;5040753;28;20036;-75
2023/03/15 01:40:56;;;;;;;3.60;2.22;;;;;;;;;;5031500;28;20032;-75
2023/03/15 01:43:24;;;;;;;3.85;1.90;;;;;;;;;;5045173;28;20021;-75
2023/03/15 01:45:59;;;;;;;6.50;2.08;;;;;;;;;;5033171;28;20037;-76
2023/03/15 01:48:27;;;;;;;1.90;1.60;;;;;;;;;;5032471;28;20120;-75
2023/03/15 01:50:54;;;;;;;4.65;2.13;;;;;;;;;;5034848;28;20090;-75
2023/03/15 01:53:22;;;;;;;3.97;1.90;;;;;;;;;;5030640;28;20032;-75
2023/03/15 01:55:48;;;;;;;3.67;1.95;;;;;;;;;;5030268;28;20029;-75
2023/03/15 01:58:14;;;;;;;2.53;1.80;;;;;;;;;;5031967;28;20061;-76
2023/03/15 02:00:40;;;;;;;3.30;1.98;;;;;;;;;;5035641;28;20049;-76
2023/03/15 02:03:13;;;;;;;2.15;1.42;;;;;;;;;;5031223;28;20037;-76
2023/03/15 02:05:45;;;;;;;3.05;2.00;;;;;;;;;;5036397;28;20298;-75
2023/03/15 02:08:12;;;;;;;3.78;1.60;;;;;;;;;;5031487;28;20038;-75
2023/03/15 02:10:42;;;;;;;1.60;1.50;;;;;;;;;;5037209;28;20033;-75
2023/03/15 02:13:08;;;;;;;1.50;1.40;;;;;;;;;;5031016;28;20026;-75
2023/03/15 02:15:34;;;;;;;1.67;1.50;;;;;;;;;;5028540;28;20057;-75
2023/03/15 02:18:00;;;;;;;3.45;1.50;;;;;;;;;;5029928;28;20488;-75
2023/03/15 02:20:26;;;;;;;1.85;1.60;;;;;;;;;;5032871;28;20434;-75
2023/03/15 02:23:03;;;;;;;7.05;1.88;;;;;;;;;;5028653;28;20083;-75
2023/03/15 02:25:36;;;;;;;2.30;1.65;;;;;;;;;;5036744;28;20025;-75
2023/03/15 02:28:03;;;;;;;2.38;1.50;;;;;;;;;;5045395;28;20056;-75
2023/03/15 02:30:29;;;;;;;2.65;1.83;;;;;;;;;;5034583;28;20101;-75
2023/03/15 02:32:57;;;;;;;1.80;1.50;;;;;;;;;;5029726;28;21965;-75
2023/03/15 02:35:43;;;;;;;2.33;1.77;;;;;;;;;;5030602;28;20373;-75
2023/03/15 02:38:09;;;;;;;2.17;1.52;;;;;;;;;;5035391;28;20055;-75
2023/03/15 02:40:35;;;;;;;2.55;1.67;;;;;;;;;;5033291;28;20025;-75
2023/03/15 02:43:05;;;;;;;2.58;1.50;;;;;;;;;;5034387;28;20037;-75
2023/03/15 02:45:31;;;;;;;2.65;1.42;;;;;;;;;;5031707;28;20624;-75
2023/03/15 02:47:57;;;;;;;2.90;1.58;;;;;;;;;;5036959;28;20440;-75
2023/03/15 02:50:23;;;;;;;2.47;1.67;;;;;;;;;;5034663;28;20108;-75
2023/03/15 02:52:51;;;;;;;3.50;1.00;;;;;;;;;;5039408;28;20029;-75
2023/03/15 02:55:20;;;;;;;3.72;1.25;;;;;;;;;;5042745;28;20510;-75
2023/03/15 02:57:46;;;;;;;1.40;1.30;;;;;;;;;;5033021;28;20133;-75
2023/03/15 03:00:13;;;;;;;2.83;1.52;;;;;;;;;;5032735;28;20033;-75
2023/03/15 03:02:45;;;;;;;1.70;1.27;;;;;;;;;;5031068;28;20014;-75
2023/03/15 03:05:12;;;;;;;2.25;1.42;;;;;;;;;;5035848;28;20028;-75
2023/03/15 03:07:38;;;;;;;1.77;1.30;;;;;;;;;;5033362;28;20605;-75
2023/03/15 03:10:05;;;;;;;1.77;1.20;;;;;;;;;;5031936;28;20137;-75
2023/03/15 03:12:32;;;;;;;1.67;1.40;;;;;;;;;;5029596;28;20029;-75
2023/03/15 03:14:58;;;;;;;3.38;1.20;;;;;;;;;;5046022;28;20053;-75
2023/03/15 03:17:24;;;;;;;1.52;1.20;;;;;;;;;;5041193;28;20075;-75
2023/03/15 03:19:50;;;;;;;1.25;1.13;;;;;;;;;;5033806;28;20029;-75
2023/03/15 03:22:16;;;;;;;1.35;1.25;;;;;;;;;;5045114;28;20511;-75
2023/03/15 03:24:44;;;;;;;1.50;1.05;;;;;;;;;;5041952;28;20468;-75
2023/03/15 03:27:11;;;;;;;1.70;1.10;;;;;;;;;;5044362;28;20028;-75
2023/03/15 03:29:37;;;;;;;1.67;1.40;;;;;;;;;;5040448;28;20680;-75
2023/03/15 03:32:03;;;;;;;1.65;1.20;;;;;;;;;;5035909;28;20256;-75
2023/03/15 03:34:30;;;;;;;2.10;1.00;;;;;;;;;;5036472;28;20029;-75
2023/03/15 03:36:56;;;;;;;1.75;1.20;;;;;;;;;;5034851;28;20025;-75
2023/03/15 03:39:22;;;;;;;3.75;1.02;;;;;;;;;;5039578;28;20066;-75
2023/03/15 03:41:48;;;;;;;1.77;1.23;;;;;;;;;;5038642;28;20033;-76
2023/03/15 03:44:15;;;;;;;3.22;1.55;;;;;;;;;;5045869;28;20079;-75
2023/03/15 03:46:41;;;;;;;2.53;1.13;;;;;;;;;;5034505;28;20112;-75
2023/03/15 03:49:07;;;;;;;1.20;1.05;;;;;;;;;;5030653;28;20116;-75
2023/03/15 03:51:33;;;;;;;4.28;1.45;;;;;;;;;;5036249;28;20028;-75
2023/03/15 03:53:59;;;;;;;1.10;1.02;;;;;;;;;;5043566;28;20088;-75
2023/03/15 03:56:25;;;;;;;2.95;1.40;;;;;;;;;;5040927;28;20029;-75
2023/03/15 03:58:51;;;;;;;2.47;1.25;;;;;;;;;;5040275;28;20028;-75
2023/03/15 04:01:17;;;;;;;1.02;0.90;;;;;;;;;;5037338;28;20028;-75
2023/03/15 04:03:43;;;;;;;0.80;0.80;;;;;;;;;;5037874;28;20025;-75
2023/03/15 04:06:09;;;;;;;1.10;0.82;;;;;;;;;;5042808;28;20060;-75
2023/03/15 04:08:35;;;;;;;1.85;0.98;;;;;;;;;;5037562;28;20025;-75
2023/03/15 04:11:02;;;;;;;3.47;1.33;;;;;;;;;;5038419;28;20511;-75
2023/03/15 04:13:28;;;;;;;4.35;1.23;;;;;;;;;;5035509;28;20564;-75
2023/03/15 04:15:57;;;;;;;0.80;0.80;;;;;;;;;;5028594;28;20045;-75
2023/03/15 04:18:23;;;;;;;1.30;1.00;;;;;;;;;;5033585;28;20017;-75
2023/03/15 04:20:53;;;;;;;1.25;0.88;;;;;;;;;;5046457;28;20463;-75
2023/03/15 04:23:19;;;;;;;1.15;1.00;;;;;;;;;;5034320;28;20032;-75
2023/03/15 04:25:48;;;;;;;1.55;0.85;;;;;;;;;;5042699;28;20033;-75
2023/03/15 04:28:14;;;;;;;0.70;0.70;;;;;;;;;;5036846;28;20029;-75
2023/03/15 04:30:41;;;;;;;4.80;1.50;;;;;;;;;;5035745;28;20029;-75
2023/03/15 04:33:08;;;;;;;0.77;0.77;;;;;;;;;;5036002;28;20037;-79
2023/03/15 04:35:34;;;;;;;0.82;0.80;;;;;;;;;;5041373;28;20080;-76
2023/03/15 04:38:02;;;;;;;1.05;0.90;;;;;;;;;;5041861;28;20033;-76
2023/03/15 04:40:29;;;;;;;0.70;0.70;;;;;;;;;;5038524;28;20496;-75
2023/03/15 04:42:55;;;;;;;1.17;1.00;;;;;;;;;;5039394;28;20029;-75
2023/03/15 04:45:22;;;;;;;2.65;1.00;;;;;;;;;;5038084;28;20028;-75
2023/03/15 04:47:49;;;;;;;2.10;0.70;;;;;;;;;;5042027;28;20025;-75
2023/03/15 04:50:15;;;;;;;2.63;1.20;;;;;;;;;;5029462;28;20492;-76
2023/03/15 04:52:42;;;;;;;1.52;1.20;;;;;;;;;;5038766;28;20037;-75
2023/03/15 04:55:08;;;;;;;2.53;1.38;;;;;;;;;;5031894;28;20029;-75
2023/03/15 04:57:34;;;;;;;1.08;0.85;;;;;;;;;;5045550;28;20033;-75
2023/03/15 05:00:00;;;;;;;1.20;1.10;;;;;;;;;;5029084;28;20032;-75
2023/03/15 05:02:26;;;;;;;1.10;0.77;;;;;;;;;;5035513;28;20116;-75
2023/03/15 05:04:52;;;;;;;1.92;0.82;;;;;;;;;;5042693;28;20404;-75
2023/03/15 05:07:18;;;;;;;2.75;1.20;;;;;;;;;;5030850;28;20021;-75
2023/03/15 05:09:45;;;;;;;1.55;0.77;;;;;;;;;;5040029;28;20522;-75
2023/03/15 05:12:11;;;;;;;1.10;1.00;;;;;;;;;;5029292;28;20725;-75
2023/03/15 05:14:37;;;;;;;0.70;0.70;;;;;;;;;;5030341;28;20053;-75
2023/03/15 05:17:03;;;;;;;0.82;0.70;;;;;;;;;;5037645;28;20103;-75
2023/03/15 05:19:29;;;;;;;1.38;0.73;;;;;;;;;;5039584;28;20032;-75
2023/03/15 05:21:55;;;;;;;2.28;0.65;;;;;;;;;;5036974;28;20044;-75
2023/03/15 05:24:21;;;;;;;1.00;0.80;;;;;;;;;;5035680;28;20017;-75
2023/03/15 05:26:47;;;;;;;1.38;0.88;;;;;;;;;;5038797;28;20404;-75
2023/03/15 05:29:13;;;;;;;0.93;0.82;;;;;;;;;;5044918;28;20025;-75
2023/03/15 05:31:39;;;;;;;1.05;0.60;;;;;;;;;;5030998;28;20029;-76
2023/03/15 05:34:05;;;;;;;0.75;0.75;;;;;;;;;;5030430;28;20083;-76
2023/03/15 05:36:31;;;;;;;1.75;0.70;;;;;;;;;;5028764;28;20041;-75
2023/03/15 05:38:58;;;;;;;1.13;0.75;;;;;;;;;;5030767;28;20442;-75
2023/03/15 05:41:23;;;;;;;1.58;0.73;;;;;;;;;;5033540;28;20033;-75
2023/03/15 05:43:50;;;;;;;6.03;1.08;;;;;;;;;;5027936;28;20526;-75
2023/03/15 05:46:16;;;;;;;0.85;0.70;;;;;;;;;;5030896;28;20022;-75
2023/03/15 05:48:42;;;;;;;0.68;0.68;;;;;;;;;;5028094;28;20465;-75
2023/03/15 05:51:08;;;;;;;1.02;0.77;;;;;;;;;;5027494;28;20072;-74
2023/03/15 05:53:34;;;;;;;0.65;0.60;;;;;;;;;;5039346;28;20029;-75
2023/03/15 05:56:00;;;;;;;0.80;0.50;;;;;;;;;;5037256;28;20017;-76
2023/03/15 05:58:26;;;;;;;1.00;0.50;;;;;;;;;;5031950;28;20029;-75
2023/03/15 06:00:53;;;;;;;0.82;0.80;;;;;;;;;;5039690;28;20029;-76
2023/03/15 06:03:19;;;;;;;3.95;0.95;;;;;;;;;;5029042;28;20063;-76
2023/03/15 06:05:48;;;;;;;0.85;0.63;;;;;;;;;;5027690;28;20088;-76
2023/03/15 06:08:14;;;;;;;1.38;0.80;;;;;;;;;;5046064;28;20025;-76
2023/03/15 06:10:40;;;;;;;2.30;0.90;;;;;;;;;;5046878;28;20036;-76
2023/03/15 06:13:06;;;;;;;0.47;0.47;;;;;;;;;;5027163;28;20030;-76
2023/03/15 06:15:32;;;;;;;0.85;0.85;;;;;;;;;;5035754;28;20033;-75
2023/03/15 06:17:58;;;;;;;1.70;1.13;;;;;;;;;;5040359;28;20037;-75
2023/03/15 06:20:24;;;;;;;1.83;0.82;;;;;;;;;;5037284;28;20033;-75
2023/03/15 06:22:50;;;;;;;1.42;0.73;;;;;;;;;;5039028;28;20025;-75
2023/03/15 06:25:16;;;;;;;2.78;0.60;;;;;;;;;;5041021;28;20040;-77
2023/03/15 06:27:42;;;;;;;0.77;0.77;;;;;;;;;;5037670;28;20388;-76
2023/03/15 06:30:08;;;;;;;1.40;1.13;;;;;;;;;;5039453;28;20037;-77
2023/03/15 06:32:34;;;;;;;1.95;0.88;;;;;;;;;;5028753;28;20037;-82
2023/03/15 06:35:00;;;;;;;1.00;0.70;;;;;;;;;;5032361;28;20083;-80
2023/03/15 06:37:26;;;;;;;1.15;0.90;;;;;;;;;;5023128;28;20083;-81
2023/03/15 06:39:53;;;;;;;0.85;0.50;;;;;;;;;;5019652;28;20025;-80
2023/03/15 06:42:19;;;;;;;1.33;0.82;;;;;;;;;;5026938;28;20100;-80
2023/03/15 06:44:45;;;;;;;0.70;0.70;;;;;;;;;;5034855;28;20036;-80
2023/03/15 06:47:12;;;;;;;1.27;0.63;;;;;;;;;;5027409;28;20049;-81
2023/03/15 06:49:40;;;;;;;1.88;1.10;;;;;;;;;;5030197;28;20075;-80
2023/03/15 06:52:07;;;;;;;1.90;0.70;;;;;;;;;;5027606;28;20045;-78
2023/03/15 06:54:33;;;;;;;1.52;0.73;;;;;;;;;;5027256;28;20085;-80
2023/03/15 06:56:59;;;;;;;3.65;0.63;;;;;;;;;;5026498;28;20022;-81
2023/03/15 06:59:25;;;;;;;0.93;0.63;;;;;;;;;;5027392;28;20612;-80
2023/03/15 07:01:51;;;;;;;1.10;0.55;;;;;;;;;;5025856;28;20018;-78
2023/03/15 07:04:17;;;;;;;1.90;1.15;;;;;;;;;;5027502;28;20392;-80
2023/03/15 07:06:43;;;;;;;1.92;0.70;;;;;;;;;;5030990;28;20033;-77
2023/03/15 07:09:09;;;;;;;2.33;0.65;;;;;;;;;;5019868;28;20025;-84
2023/03/15 07:11:35;;;;;;;1.65;0.60;;;;;;;;;;5026943;28;20010;-79
2023/03/15 07:14:01;;;;;;;1.38;0.70;;;;;;;;;;5021354;28;20496;-85
2023/03/15 07:16:27;;;;;;;0.55;0.50;;;;;;;;;;5025009;28;20480;-84
2023/03/15 07:18:55;;;;;;;3.72;0.80;;;;;;;;;;5026526;28;20481;-74
2023/03/15 07:21:23;;;;;;;1.77;0.85;;;;;;;;;;5037258;28;20029;-81
2023/03/15 07:23:49;;;;;;;1.50;0.70;;;;;;;;;;5039182;28;20025;-83
2023/03/15 07:26:15;;;;;;;0.98;0.70;;;;;;;;;;5050550;28;20376;-84
2023/03/15 07:28:43;;;;;;;0.68;0.60;;;;;;;;;;5032771;28;20443;-80
2023/03/15 07:31:10;;;;;;;0.85;0.63;;;;;;;;;;5034773;28;20040;-82
2023/03/15 07:33:36;;;;;;;3.65;0.80;;;;;;;;;;5041420;28;20071;-78
2023/03/15 07:36:05;;;;;;;2.00;0.73;;;;;;;;;;5031734;28;20104;-76
2023/03/15 07:38:31;;;;;;;0.90;0.80;;;;;;;;;;5030320;28;20057;-78
2023/03/15 07:41:00;;;;;;;1.60;0.80;;;;;;;;;;5030268;28;20026;-79
2023/03/15 07:43:26;;;;;;;2.92;0.80;;;;;;;;;;5044604;28;20108;-83
2023/03/15 07:45:52;;;;;;;1.67;0.90;;;;;;;;;;5043853;28;20368;-84
2023/03/15 07:48:18;;;;;;;2.88;0.73;;;;;;;;;;5048828;28;20029;-89
2023/03/15 07:50:45;;;;;;;3.80;0.75;;;;;;;;;;5044819;28;20037;-79
2023/03/15 07:53:11;;;;;;;0.88;0.52;;;;;;;;;;5047721;28;20033;-82
2023/03/15 07:55:36;;;;;;;1.45;0.40;;;;;;;;;;5044463;28;20549;-79
2023/03/15 07:58:02;;;;;;;1.23;0.60;;;;;;;;;;5042849;28;20025;-80
2023/03/15 08:00:29;;;;;;;0.50;0.50;;;;;;;;;;5046011;28;20299;-81
2023/03/15 08:02:55;;;;;;;1.85;0.68;;;;;;;;;;5048966;28;20111;-74
2023/03/15 08:05:21;;;;;;;1.95;0.70;;;;;;;;;;5043189;28;20159;-80
2023/03/15 08:07:48;;;;;;;0.38;0.30;;;;;;;;;;5044821;28;20033;-82
2023/03/15 08:10:15;;;;;;;0.80;0.80;;;;;;;;;;5047221;28;20325;-74
2023/03/15 08:12:41;;;;;;;0.57;0.57;;;;;;;;;;5048375;28;20025;-88
2023/03/15 08:15:17;;;;;;;1.00;0.75;;;;;;;;;;5045057;28;20048;-77
2023/03/15 08:17:43;;;;;;;0.68;0.52;;;;;;;;;;5029028;28;20411;-79
2023/03/15 08:20:11;;;;;;;0.68;0.47;;;;;;;;;;5032523;28;20075;-85
2023/03/15 08:22:37;;;;;;;3.38;0.57;;;;;;;;;;5042149;28;20025;-78
2023/03/15 08:25:04;;;;;;;1.05;0.60;;;;;;;;;;5044321;28;20033;-79
2023/03/15 08:27:32;;;;;;;1.33;1.05;;;;;;;;;;5046910;28;20071;-78
2023/03/15 08:29:58;;;;;;;2.30;0.95;;;;;;;;;;5038739;28;20025;-79
2023/03/15 08:32:27;;;;;;;0.70;0.50;;;;;;;;;;5042032;28;20048;-80
2023/03/15 08:34:53;;;;;;;1.15;0.50;;;;;;;;;;5038732;28;20072;-77
2023/03/15 08:37:20;;;;;;;0.65;0.60;;;;;;;;;;5029202;28;20189;-76
2023/03/15 08:39:48;;;;;;;0.47;0.47;;;;;;;;;;5044223;28;20033;-80
2023/03/15 08:42:14;;;;;;;1.15;0.40;;;;;;;;;;5032211;28;20489;-80
2023/03/15 08:44:40;;;;;;;1.80;0.85;;;;;;;;;;5043415;28;20033;-80
2023/03/15 08:47:06;;;;;;;1.55;0.68;;;;;;;;;;5030276;28;20116;-80
2023/03/15 08:49:32;;;;;;;3.53;0.50;;;;;;;;;;5028723;28;20032;-79
2023/03/15 08:51:58;;;;;;;1.27;0.75;;;;;;;;;;5029643;28;20021;-79
2023/03/15 08:54:26;;;;;;;4.60;0.60;;;;;;;;;;5036955;28;20036;-80
2023/03/15 08:56:52;;;;;;;0.40;0.40;;;;;;;;;;5033162;28;20527;-79
2023/03/15 08:59:18;;;;;;;0.80;0.38;;;;;;;;;;5038622;28;20424;-79
2023/03/15 09:01:44;;;;;;;0.70;0.45;;;;;;;;;;5025586;28;20029;-79
2023/03/15 09:04:10;;;;;;;4.88;0.50;;;;;;;;;;5023266;28;20488;-80
2023/03/15 09:06:36;;;;;;;1.25;0.60;;;;;;;;;;5030029;28;20439;-77
2023/03/15 09:09:02;;;;;;;1.23;0.60;;;;;;;;;;5029138;28;20061;-78
2023/03/15 09:11:28;;;;;;;0.40;0.40;;;;;;;;;;5027607;28;20021;-79
2023/03/15 09:13:54;;;;;;;1.92;0.70;;;;;;;;;;5031065;28;20030;-79
2023/03/15 09:16:20;;;;;;;1.17;0.73;;;;;;;;;;5026436;28;20056;-78
2023/03/15 09:18:46;;;;;;;1.85;0.40;;;;;;;;;;5037467;28;20025;-79
2023/03/15 09:21:12;;;;;;;1.60;0.65;;;;;;;;;;5030488;28;20041;-76
2023/03/15 09:23:38;;;;;;;0.82;0.50;;;;;;;;;;5036743;28;20025;-76
2023/03/15 09:26:04;;;;;;;0.30;0.30;;;;;;;;;;5044162;28;20447;-77
2023/03/15 09:28:30;;;;;;;1.15;0.57;;;;;;;;;;5041234;28;20029;-76
2023/03/15 09:30:56;;;;;;;0.43;0.40;;;;;;;;;;5044042;28;20040;-77
2023/03/15 09:33:22;;;;;;;3.30;0.55;;;;;;;;;;5039352;28;20028;-77
2023/03/15 09:35:53;;;;;;;4.43;0.50;;;;;;;;;;5026594;28;20025;-77
2023/03/15 09:38:20;;;;;;;0.30;0.30;;;;;;;;;;5026273;28;20022;-77
2023/03/15 09:40:46;;;;;;;0.40;0.40;;;;;;;;;;5030291;28;20079;-77
2023/03/15 09:43:28;;;;;;;0.75;0.57;;;;;;;;;;5026478;28;20391;-77
2023/03/15 09:46:14;;;;;;;1.35;0.40;;;;;;;;;;5027525;28;20025;-77
2023/03/15 09:48:52;;;;;;;0.82;0.40;;;;;;;;;;5027804;28;20104;-77
2023/03/15 09:51:29;;;;;;;0.63;0.30;;;;;;;;;;5029705;28;20037;-77
2023/03/15 09:53:55;;;;;;;0.70;0.60;;;;;;;;;;5048053;28;20028;-77
2023/03/15 09:56:27;;;;;;;1.23;0.55;;;;;;;;;;5047892;28;20040;-77
2023/03/15 09:58:55;;;;;;;0.65;0.65;;;;;;;;;;5047607;28;20083;-77
2023/03/15 10:01:25;;;;;;;0.30;0.30;;;;;;;;;;5045400;28;20028;-77
2023/03/15 10:03:51;;;;;;;1.33;0.52;;;;;;;;;;5028022;28;20041;-76
2023/03/15 10:06:19;;;;;;;0.63;0.63;;;;;;;;;;5027481;28;20045;-77
2023/03/15 10:08:50;;;;;;;0.43;0.43;;;;;;;;;;5042063;28;20028;-77
2023/03/15 10:11:29;;;;;;;0.50;0.50;;;;;;;;;;5044303;28;20587;-77
2023/03/15 10:13:55;;;;;;;1.25;0.60;;;;;;;;;;5047412;28;20033;-76
2023/03/15 10:16:30;;;;;;;2.80;0.63;;;;;;;;;;5047557;28;20040;-77
2023/03/15 10:19:02;;;;;;;4.18;0.73;;;;;;;;;;5030048;28;20476;-77
2023/03/15 10:21:40;;;;;;;0.43;0.35;;;;;;;;;;5027906;28;20095;-77
2023/03/15 10:24:12;;;;;;;1.48;0.65;;;;;;;;;;5037307;28;20036;-77
2023/03/15 10:26:40;;;;;;;0.40;0.40;;;;;;;;;;5024549;28;20029;-76
2023/03/15 10:29:11;;;;;;;0.40;0.40;;;;;;;;;;5025531;28;20014;-77
2023/03/15 10:31:39;;;;;;;1.00;0.70;;;;;;;;;;5032917;28;20033;-77
2023/03/15 10:34:05;;;;;;;0.40;0.40;;;;;;;;;;5032909;28;20107;-77
2023/03/15 10:36:31;;;;;;;0.50;0.50;;;;;;;;;;5027747;28;20030;-77
2023/03/15 10:38:57;;;;;;;1.70;1.00;;;;;;;;;;5037029;28;20044;-77
2023/03/15 10:41:28;;;;;;;0.68;0.50;;;;;;;;;;5044142;28;20024;-77
2023/03/15 10:44:02;;;;;;;0.40;0.40;;;;;;;;;;5045447;28;20593;-78
2023/03/15 10:46:28;;;;;;;0.43;0.40;;;;;;;;;;5042856;28;20072;-77
2023/03/15 10:48:58;;;;;;;0.20;0.20;;;;;;;;;;5041770;28;20138;-77
2023/03/15 10:51:29;;;;;;;1.45;0.60;;;;;;;;;;5030214;28;20559;-77
2023/03/15 10:53:59;;;;;;;0.35;0.35;;;;;;;;;;5033670;28;20041;-75
2023/03/15 10:56:26;;;;;;;1.15;0.50;;;;;;;;;;5027018;28;20369;-76
2023/03/15 10:58:55;;;;;;;0.50;0.50;;;;;;;;;;5037119;28;20455;-76
2023/03/15 11:01:33;;;;;;;0.68;0.50;;;;;;;;;;5042455;28;20166;-76
2023/03/15 11:04:09;;;;;;;1.65;0.77;;;;;;;;;;5046972;28;20037;-75
2023/03/15 11:06:40;;;;;;;5.10;1.45;;;;;;;;;;5047587;28;20049;-75
2023/03/15 11:09:10;;;;;;;4.20;1.80;;;;;;;;;;5048878;28;20453;-76
2023/03/15 11:11:55;;;;;;;3.25;1.27;;;;;;;;;;5034173;28;20090;-76
2023/03/15 11:14:21;;;;;;;4.60;1.58;;;;;;;;;;5049185;28;20056;-75
2023/03/15 11:16:48;;;;;;;6.97;2.85;;;;;;;;;;5048238;28;20041;-76
2023/03/15 11:19:16;;;;;;;5.43;2.50;;;;;;;;;;5041420;28;20028;-76
2023/03/15 11:21:42;;;;;;;13.05;4.15;;;;;;;;;;5048685;28;20009;-75
2023/03/15 11:24:19;;;;;;;7.28;2.80;;;;;;;;;;5045722;28;20036;-75
2023/03/15 11:26:50;;;;;;;8.18;3.50;;;;;;;;;;5043503;28;20029;-76
2023/03/15 11:29:20;;;;;;;8.00;2.80;;;;;;;;;;5033534;28;20044;-76
2023/03/15 11:31:47;;;;;;;7.95;3.10;;;;;;;;;;5036153;28;20052;-76
2023/03/15 11:34:16;;;;;;;4.63;2.13;;;;;;;;;;5035584;28;20048;-75
2023/03/15 11:36:44;;;;;;;10.85;2.88;;;;;;;;;;5036981;28;20033;-76
2023/03/15 11:39:13;;;;;;;5.38;2.75;;;;;;;;;;5042593;28;20029;-76
2023/03/15 11:41:41;;;;;;;9.20;2.70;;;;;;;;;;5050420;28;20021;-75
2023/03/15 11:44:10;;;;;;;13.45;2.92;;;;;;;;;;5042216;28;20048;-76
2023/03/15 11:46:39;;;;;;;6.20;3.25;;;;;;;;;;5031242;28;20040;-75
2023/03/15 11:49:26;;;;;;;6.00;2.70;;;;;;;;;;5030799;28;20399;-76
2023/03/15 11:51:54;;;;;;;8.52;2.65;;;;;;;;;;5031396;28;20420;-76
2023/03/15 11:54:21;;;;;;;3.85;1.92;;;;;;;;;;5029573;28;20029;-75
2023/03/15 11:56:49;;;;;;;7.22;2.03;;;;;;;;;;5029444;28;20044;-76
2023/03/15 11:59:17;;;;;;;7.80;3.28;;;;;;;;;;5046656;28;20040;-75
2023/03/15 12:01:48;;;;;;;7.45;2.70;;;;;;;;;;5036681;28;20464;-76
2023/03/15 12:04:26;;;;;;;9.13;2.78;;;;;;;;;;5037456;28;20395;-76
2023/03/15 12:06:56;;;;;;;6.90;2.40;;;;;;;;;;5037965;28;20121;-77
2023/03/15 12:09:36;;;;;;;8.27;2.75;;;;;;;;;;5032935;28;20034;-77
2023/03/15 12:12:03;;;;;;;3.47;1.90;;;;;;;;;;5049060;28;20391;-76
2023/03/15 12:14:30;;;;;;;5.15;2.33;;;;;;;;;;5039938;28;20045;-76
2023/03/15 12:17:17;;;;;;;4.88;2.00;;;;;;;;;;5030430;28;20105;-76
2023/03/15 12:19:43;;;;;;;4.60;2.03;;;;;;;;;;5031403;28;20041;-76
2023/03/15 12:22:16;;;;;;;6.30;2.10;;;;;;;;;;5038217;28;20037;-76
2023/03/15 12:24:44;;;;;;;4.15;2.13;;;;;;;;;;5034412;28;20391;-76
2023/03/15 12:27:16;;;;;;;6.43;2.30;;;;;;;;;;5034937;28;20044;-77
2023/03/15 12:29:44;;;;;;;4.40;2.13;;;;;;;;;;5049341;28;20585;-77
2023/03/15 12:32:20;;;;;;;7.40;2.72;;;;;;;;;;5047453;28;20028;-77
2023/03/15 12:35:07;;;;;;;5.78;2.80;;;;;;;;;;5037235;28;20037;-77
2023/03/15 12:37:44;;;;;;;4.20;2.08;;;;;;;;;;5034041;28;20024;-77
2023/03/15 12:40:21;;;;;;;4.70;1.88;;;;;;;;;;5035493;28;20053;-77
2023/03/15 12:42:47;;;;;;;6.05;1.65;;;;;;;;;;5030401;28;20032;-77
2023/03/15 12:45:16;;;;;;;6.75;2.10;;;;;;;;;;5029112;28;20033;-77
2023/03/15 12:47:51;;;;;;;5.95;1.80;;;;;;;;;;5030167;28;20076;-77
2023/03/15 12:50:36;;;;;;;4.03;2.15;;;;;;;;;;5028733;28;20404;-77
2023/03/15 12:53:03;;;;;;;2.47;1.73;;;;;;;;;;5038606;28;20029;-77
2023/03/15 12:55:32;;;;;;;5.13;1.55;;;;;;;;;;5041785;28;20040;-77
2023/03/15 12:57:59;;;;;;;7.38;2.25;;;;;;;;;;5038570;28;20025;-77
2023/03/15 13:00:29;;;;;;;2.42;1.55;;;;;;;;;;5046450;28;20120;-77
2023/03/15 13:03:04;;;;;;;2.80;1.80;;;;;;;;;;5038963;28;20025;-77
2023/03/15 13:05:35;;;;;;;2.33;1.20;;;;;;;;;;5041779;28;20037;-77
2023/03/15 13:08:20;;;;;;;3.80;1.77;;;;;;;;;;5045494;28;20034;-77
2023/03/15 13:10:56;;;;;;;4.97;1.73;;;;;;;;;;5034495;28;20033;-77
2023/03/15 13:13:37;;;;;;;7.10;2.10;;;;;;;;;;5031972;28;20033;-78
2023/03/15 13:16:21;;;;;;;3.83;2.20;;;;;;;;;;5028097;28;20056;-77
2023/03/15 13:18:54;;;;;;;3.53;1.60;;;;;;;;;;5034496;28;20504;-78
2023/03/15 13:21:26;;;;;;;5.03;1.80;;;;;;;;;;5038501;28;20024;-77
2023/03/15 13:23:55;;;;;;;6.25;1.50;;;;;;;;;;5030810;28;20028;-77
2023/03/15 13:26:32;;;;;;;4.72;1.60;;;;;;;;;;5028300;28;20152;-77
2023/03/15 13:29:00;;;;;;;3.28;1.77;;;;;;;;;;5028405;28;20037;-77
2023/03/15 13:31:26;;;;;;;3.72;1.50;;;;;;;;;;5045292;28;20051;-77
2023/03/15 13:33:57;;;;;;;2.38;1.15;;;;;;;;;;5038606;28;20026;-75
2023/03/15 13:36:38;;;;;;;3.17;1.55;;;;;;;;;;5037375;28;20116;-77
2023/03/15 13:39:10;;;;;;;3.47;1.90;;;;;;;;;;5039720;28;20033;-77
2023/03/15 13:41:36;;;;;;;;;;;;;;;;;;5042276;28;20017;-77
2023/03/15 13:44:03;;;;;;;3.80;1.00;;;;;;;;;;5038354;28;19952;-77
2023/03/15 13:46:30;;;;;;;4.18;1.55;;;;;;;;;;5039751;28;20037;-77
2023/03/15 13:48:56;;;;;;;7.00;1.73;;;;;;;;;;5037662;28;20040;-77
2023/03/15 13:51:24;;;;;;;3.20;1.33;;;;;;;;;;5047446;28;20032;-77
2023/03/15 13:53:51;;;;;;;2.78;1.40;;;;;;;;;;5047936;28;20108;-77
2023/03/15 13:56:19;;;;;;;3.83;1.30;;;;;;;;;;5037781;28;20030;-77
2023/03/15 13:58:45;;;;;;;4.63;1.95;;;;;;;;;;5032692;28;20017;-78
2023/03/15 14:01:12;;;;;;;3.97;1.85;;;;;;;;;;5042652;28;20039;-77
2023/03/15 14:03:40;;;;;;;5.85;2.03;;;;;;;;;;5047165;28;20075;-77
2023/03/15 14:06:06;;;;;;;4.03;2.03;;;;;;;;;;5046974;28;20021;-77
2023/03/15 14:08:34;;;;;;;3.03;1.65;;;;;;;;;;5028157;28;20025;-77
2023/03/15 14:11:06;;;;;;;3.33;1.40;;;;;;;;;;5031237;28;20021;-77
2023/03/15 14:13:32;;;;;;;;;;;;;;;;;;5040466;28;20037;-78
2023/03/15 14:16:02;;;;;;;3.08;1.50;;;;;;;;;;5037433;28;19963;-77
2023/03/15 14:18:35;;;;;;;2.53;1.40;;;;;;;;;;5027545;28;20014;-77
2023/03/15 14:21:05;;;;;;;2.28;1.27;;;;;;;;;;5033151;28;20117;-77
2023/03/15 14:23:31;;;;;;;3.75;1.40;;;;;;;;;;5035694;28;20095;-78
2023/03/15 14:26:12;;;;;;;2.83;1.23;;;;;;;;;;5045277;28;20037;-77
2023/03/15 14:28:38;;;;;;;1.88;1.10;;;;;;;;;;5047461;28;20032;-77
2023/03/15 14:31:04;;;;;;;2.20;1.10;;;;;;;;;;5042987;28;20116;-78
2023/03/15 14:33:40;;;;;;;2.33;0.85;;;;;;;;;;5047466;28;20171;-77
2023/03/15 14:36:07;;;;;;;4.63;1.27;;;;;;;;;;5041985;28;20508;-77
2023/03/15 14:38:35;;;;;;;4.95;1.23;;;;;;;;;;5044121;28;20029;-77
2023/03/15 14:41:16;;;;;;;2.40;1.15;;;;;;;;;;5045135;28;20025;-77
2023/03/15 14:43:42;;;;;;;1.20;0.85;;;;;;;;;;5031508;28;20030;-77
2023/03/15 14:46:08;;;;;;;3.20;0.93;;;;;;;;;;5042261;28;20064;-78
2023/03/15 14:48:35;;;;;;;2.53;1.38;;;;;;;;;;5051559;28;20040;-77